sensor_id;sensor_type;location;lat;lon;timestamp;P1;durP1;ratioP1;P2;durP2;ratioP2
38785;SDS011;24535;45.508;12.252;2024-01-15T00:20:27;93.50;;;75.18;;
38785;SDS011;24535;45.508;12.252;2024-01-15T00:22:52;93.15;;;73.35;;
38785;SDS011;24535;45.508;12.252;2024-01-15T00:25:18;96.55;;;75.18;;
38785;SDS011;24535;45.508;12.252;2024-01-15T00:30:21;96.82;;;73.55;;
38785;SDS011;24535;45.508;12.252;2024-01-15T00:32:47;97.28;;;75.20;;
38785;SDS011;24535;45.508;12.252;2024-01-15T00:35:12;94.53;;;73.55;;
38785;SDS011;24535;45.508;12.252;2024-01-15T00:37:38;103.70;;;76.60;;
38785;SDS011;24535;45.508;12.252;2024-01-15T00:40:04;96.13;;;76.55;;
38785;SDS011;24535;45.508;12.252;2024-01-15T00:42:30;92.38;;;71.93;;
38785;SDS011;24535;45.508;12.252;2024-01-15T00:50:16;90.75;;;71.82;;
38785;SDS011;24535;45.508;12.252;2024-01-15T00:52:42;92.60;;;74.10;;
38785;SDS011;24535;45.508;12.252;2024-01-15T00:55:10;96.18;;;75.50;;
38785;SDS011;24535;45.508;12.252;2024-01-15T00:57:38;89.15;;;72.63;;
38785;SDS011;24535;45.508;12.252;2024-01-15T01:00:04;95.70;;;74.00;;
38785;SDS011;24535;45.508;12.252;2024-01-15T01:02:31;89.57;;;71.32;;
38785;SDS011;24535;45.508;12.252;2024-01-15T01:05:02;89.53;;;72.30;;
38785;SDS011;24535;45.508;12.252;2024-01-15T01:07:31;91.53;;;69.72;;
38785;SDS011;24535;45.508;12.252;2024-01-15T01:09:57;91.47;;;72.22;;
38785;SDS011;24535;45.508;12.252;2024-01-15T01:12:22;91.90;;;71.38;;
38785;SDS011;24535;45.508;12.252;2024-01-15T01:14:48;93.43;;;71.70;;
38785;SDS011;24535;45.508;12.252;2024-01-15T01:17:13;92.35;;;72.30;;
38785;SDS011;24535;45.508;12.252;2024-01-15T01:19:39;91.50;;;70.43;;
38785;SDS011;24535;45.508;12.252;2024-01-15T01:22:04;92.03;;;72.57;;
38785;SDS011;24535;45.508;12.252;2024-01-15T01:24:30;91.05;;;72.53;;
38785;SDS011;24535;45.508;12.252;2024-01-15T01:26:55;91.38;;;71.55;;
38785;SDS011;24535;45.508;12.252;2024-01-15T01:29:21;88.68;;;70.97;;
38785;SDS011;24535;45.508;12.252;2024-01-15T01:31:47;95.45;;;74.10;;
38785;SDS011;24535;45.508;12.252;2024-01-15T01:34:16;91.72;;;72.10;;
38785;SDS011;24535;45.508;12.252;2024-01-15T01:36:42;91.40;;;68.27;;
38785;SDS011;24535;45.508;12.252;2024-01-15T01:39:08;87.35;;;68.15;;
38785;SDS011;24535;45.508;12.252;2024-01-15T01:41:37;94.22;;;72.63;;
38785;SDS011;24535;45.508;12.252;2024-01-15T01:44:03;93.05;;;70.35;;
38785;SDS011;24535;45.508;12.252;2024-01-15T01:46:32;87.40;;;69.30;;
38785;SDS011;24535;45.508;12.252;2024-01-15T01:51:48;90.97;;;70.05;;
38785;SDS011;24535;45.508;12.252;2024-01-15T01:54:24;86.03;;;69.95;;
38785;SDS011;24535;45.508;12.252;2024-01-15T01:56:50;92.30;;;71.50;;
38785;SDS011;24535;45.508;12.252;2024-01-15T01:59:17;90.55;;;69.00;;
38785;SDS011;24535;45.508;12.252;2024-01-15T02:01:42;93.13;;;71.47;;
38785;SDS011;24535;45.508;12.252;2024-01-15T02:04:15;88.32;;;70.60;;
38785;SDS011;24535;45.508;12.252;2024-01-15T02:06:42;95.55;;;71.32;;
38785;SDS011;24535;45.508;12.252;2024-01-15T02:09:07;91.03;;;70.10;;
38785;SDS011;24535;45.508;12.252;2024-01-15T02:11:34;95.53;;;71.55;;
38785;SDS011;24535;45.508;12.252;2024-01-15T02:14:01;90.28;;;67.38;;
38785;SDS011;24535;45.508;12.252;2024-01-15T02:19:19;91.20;;;69.55;;
38785;SDS011;24535;45.508;12.252;2024-01-15T02:21:45;91.57;;;69.35;;
38785;SDS011;24535;45.508;12.252;2024-01-15T02:24:10;91.40;;;71.07;;
38785;SDS011;24535;45.508;12.252;2024-01-15T02:26:39;88.72;;;69.22;;
38785;SDS011;24535;45.508;12.252;2024-01-15T02:29:05;91.32;;;67.68;;
38785;SDS011;24535;45.508;12.252;2024-01-15T02:31:38;95.68;;;70.55;;
38785;SDS011;24535;45.508;12.252;2024-01-15T02:34:04;101.65;;;72.57;;
38785;SDS011;24535;45.508;12.252;2024-01-15T02:36:29;88.72;;;68.40;;
38785;SDS011;24535;45.508;12.252;2024-01-15T02:38:55;96.35;;;71.45;;
38785;SDS011;24535;45.508;12.252;2024-01-15T02:41:21;95.88;;;73.75;;
38785;SDS011;24535;45.508;12.252;2024-01-15T02:43:46;96.85;;;71.60;;
38785;SDS011;24535;45.508;12.252;2024-01-15T02:46:11;93.20;;;69.45;;
38785;SDS011;24535;45.508;12.252;2024-01-15T02:48:37;90.93;;;71.90;;
38785;SDS011;24535;45.508;12.252;2024-01-15T02:51:05;94.38;;;72.38;;
38785;SDS011;24535;45.508;12.252;2024-01-15T02:53:31;95.87;;;71.43;;
38785;SDS011;24535;45.508;12.252;2024-01-15T02:55:59;92.15;;;72.80;;
38785;SDS011;24535;45.508;12.252;2024-01-15T02:58:25;86.32;;;69.78;;
38785;SDS011;24535;45.508;12.252;2024-01-15T03:00:50;87.10;;;70.22;;
38785;SDS011;24535;45.508;12.252;2024-01-15T03:03:16;90.28;;;69.57;;
38785;SDS011;24535;45.508;12.252;2024-01-15T03:05:44;94.78;;;72.25;;
38785;SDS011;24535;45.508;12.252;2024-01-15T03:08:11;90.50;;;72.32;;
38785;SDS011;24535;45.508;12.252;2024-01-15T03:10:36;93.93;;;72.68;;
38785;SDS011;24535;45.508;12.252;2024-01-15T03:13:02;91.65;;;73.68;;
38785;SDS011;24535;45.508;12.252;2024-01-15T03:15:27;92.72;;;72.97;;
38785;SDS011;24535;45.508;12.252;2024-01-15T03:17:53;92.57;;;73.70;;
38785;SDS011;24535;45.508;12.252;2024-01-15T03:20:18;93.88;;;73.50;;
38785;SDS011;24535;45.508;12.252;2024-01-15T03:22:43;93.70;;;72.97;;
38785;SDS011;24535;45.508;12.252;2024-01-15T03:25:09;94.85;;;72.72;;
38785;SDS011;24535;45.508;12.252;2024-01-15T03:27:34;96.55;;;73.68;;
38785;SDS011;24535;45.508;12.252;2024-01-15T03:30:00;91.63;;;70.40;;
38785;SDS011;24535;45.508;12.252;2024-01-15T03:32:27;97.20;;;72.53;;
38785;SDS011;24535;45.508;12.252;2024-01-15T03:34:53;88.88;;;71.32;;
38785;SDS011;24535;45.508;12.252;2024-01-15T03:37:21;93.10;;;72.07;;
38785;SDS011;24535;45.508;12.252;2024-01-15T03:39:47;95.47;;;70.97;;
38785;SDS011;24535;45.508;12.252;2024-01-15T03:42:12;97.18;;;72.88;;
38785;SDS011;24535;45.508;12.252;2024-01-15T03:44:39;94.35;;;68.95;;
38785;SDS011;24535;45.508;12.252;2024-01-15T03:47:04;89.50;;;69.15;;
38785;SDS011;24535;45.508;12.252;2024-01-15T03:49:30;91.65;;;71.22;;
38785;SDS011;24535;45.508;12.252;2024-01-15T03:51:55;89.88;;;71.35;;
38785;SDS011;24535;45.508;12.252;2024-01-15T03:56:59;91.75;;;68.72;;
38785;SDS011;24535;45.508;12.252;2024-01-15T03:59:27;90.75;;;69.68;;
38785;SDS011;24535;45.508;12.252;2024-01-15T04:01:53;99.00;;;71.27;;
38785;SDS011;24535;45.508;12.252;2024-01-15T04:04:18;89.95;;;71.05;;
38785;SDS011;24535;45.508;12.252;2024-01-15T04:07:26;94.40;;;68.57;;
38785;SDS011;24535;45.508;12.252;2024-01-15T04:09:51;87.47;;;66.95;;
38785;SDS011;24535;45.508;12.252;2024-01-15T04:12:16;94.07;;;69.32;;
38785;SDS011;24535;45.508;12.252;2024-01-15T04:14:42;93.32;;;70.50;;
38785;SDS011;24535;45.508;12.252;2024-01-15T04:17:07;94.25;;;72.25;;
38785;SDS011;24535;45.508;12.252;2024-01-15T04:19:33;92.32;;;70.10;;
38785;SDS011;24535;45.508;12.252;2024-01-15T04:24:50;90.45;;;69.47;;
38785;SDS011;24535;45.508;12.252;2024-01-15T04:27:16;92.45;;;69.97;;
38785;SDS011;24535;45.508;12.252;2024-01-15T04:29:41;91.60;;;69.13;;
38785;SDS011;24535;45.508;12.252;2024-01-15T04:32:09;89.47;;;69.20;;
38785;SDS011;24535;45.508;12.252;2024-01-15T04:34:35;87.25;;;68.75;;
38785;SDS011;24535;45.508;12.252;2024-01-15T04:37:00;93.97;;;70.78;;
38785;SDS011;24535;45.508;12.252;2024-01-15T04:39:25;87.85;;;68.85;;
38785;SDS011;24535;45.508;12.252;2024-01-15T04:41:51;88.57;;;69.35;;
38785;SDS011;24535;45.508;12.252;2024-01-15T04:44:16;95.78;;;69.60;;
38785;SDS011;24535;45.508;12.252;2024-01-15T04:46:44;91.45;;;69.78;;
38785;SDS011;24535;45.508;12.252;2024-01-15T04:49:10;85.47;;;66.82;;
38785;SDS011;24535;45.508;12.252;2024-01-15T04:51:36;89.50;;;67.38;;
38785;SDS011;24535;45.508;12.252;2024-01-15T04:54:01;92.15;;;67.45;;
38785;SDS011;24535;45.508;12.252;2024-01-15T04:56:27;92.07;;;69.32;;
38785;SDS011;24535;45.508;12.252;2024-01-15T04:58:52;91.63;;;70.13;;
38785;SDS011;24535;45.508;12.252;2024-01-15T05:01:18;89.30;;;67.63;;
38785;SDS011;24535;45.508;12.252;2024-01-15T05:03:43;92.25;;;68.25;;
38785;SDS011;24535;45.508;12.252;2024-01-15T05:06:09;89.13;;;67.00;;
38785;SDS011;24535;45.508;12.252;2024-01-15T05:08:37;87.07;;;67.13;;
38785;SDS011;24535;45.508;12.252;2024-01-15T05:11:03;86.85;;;67.88;;
38785;SDS011;24535;45.508;12.252;2024-01-15T05:13:28;89.30;;;68.28;;
38785;SDS011;24535;45.508;12.252;2024-01-15T05:15:54;86.35;;;65.75;;
38785;SDS011;24535;45.508;12.252;2024-01-15T05:18:19;87.30;;;65.80;;
38785;SDS011;24535;45.508;12.252;2024-01-15T05:20:51;83.97;;;64.35;;
38785;SDS011;24535;45.508;12.252;2024-01-15T05:23:20;80.05;;;63.45;;
38785;SDS011;24535;45.508;12.252;2024-01-15T05:25:45;87.80;;;64.53;;
38785;SDS011;24535;45.508;12.252;2024-01-15T05:28:11;79.50;;;60.83;;
38785;SDS011;24535;45.508;12.252;2024-01-15T05:30:40;84.18;;;62.95;;
38785;SDS011;24535;45.508;12.252;2024-01-15T05:33:05;81.57;;;60.97;;
38785;SDS011;24535;45.508;12.252;2024-01-15T05:35:32;80.75;;;62.92;;
38785;SDS011;24535;45.508;12.252;2024-01-15T05:37:58;86.47;;;63.58;;
38785;SDS011;24535;45.508;12.252;2024-01-15T05:40:23;84.70;;;62.88;;
38785;SDS011;24535;45.508;12.252;2024-01-15T05:42:49;79.80;;;61.30;;
38785;SDS011;24535;45.508;12.252;2024-01-15T05:45:14;79.82;;;61.08;;
38785;SDS011;24535;45.508;12.252;2024-01-15T05:47:40;84.10;;;61.63;;
38785;SDS011;24535;45.508;12.252;2024-01-15T05:50:05;78.28;;;58.53;;
38785;SDS011;24535;45.508;12.252;2024-01-15T05:52:31;80.40;;;62.45;;
38785;SDS011;24535;45.508;12.252;2024-01-15T05:54:57;76.57;;;59.60;;
38785;SDS011;24535;45.508;12.252;2024-01-15T05:57:23;80.43;;;61.20;;
38785;SDS011;24535;45.508;12.252;2024-01-15T05:59:48;79.75;;;60.05;;
38785;SDS011;24535;45.508;12.252;2024-01-15T06:08:33;72.60;;;57.42;;
38785;SDS011;24535;45.508;12.252;2024-01-15T06:11:58;72.45;;;56.75;;
38785;SDS011;24535;45.508;12.252;2024-01-15T06:14:30;76.72;;;60.75;;
38785;SDS011;24535;45.508;12.252;2024-01-15T06:16:57;77.95;;;60.28;;
38785;SDS011;24535;45.508;12.252;2024-01-15T06:19:23;79.82;;;59.95;;
38785;SDS011;24535;45.508;12.252;2024-01-15T06:21:51;78.53;;;60.35;;
38785;SDS011;24535;45.508;12.252;2024-01-15T06:24:17;78.20;;;61.27;;
38785;SDS011;24535;45.508;12.252;2024-01-15T06:26:46;72.47;;;58.85;;
38785;SDS011;24535;45.508;12.252;2024-01-15T06:29:14;78.15;;;57.85;;
38785;SDS011;24535;45.508;12.252;2024-01-15T06:31:40;77.30;;;61.20;;
38785;SDS011;24535;45.508;12.252;2024-01-15T06:34:05;79.05;;;60.83;;
38785;SDS011;24535;45.508;12.252;2024-01-15T06:36:31;77.40;;;60.05;;
38785;SDS011;24535;45.508;12.252;2024-01-15T06:38:56;78.72;;;59.03;;
38785;SDS011;24535;45.508;12.252;2024-01-15T06:41:24;79.18;;;57.53;;
38785;SDS011;24535;45.508;12.252;2024-01-15T06:43:50;80.05;;;59.80;;
38785;SDS011;24535;45.508;12.252;2024-01-15T06:46:22;72.05;;;57.13;;
38785;SDS011;24535;45.508;12.252;2024-01-15T06:48:50;71.75;;;56.55;;
38785;SDS011;24535;45.508;12.252;2024-01-15T06:51:16;74.28;;;57.78;;
38785;SDS011;24535;45.508;12.252;2024-01-15T06:53:44;77.80;;;57.72;;
38785;SDS011;24535;45.508;12.252;2024-01-15T06:56:09;80.05;;;56.72;;
38785;SDS011;24535;45.508;12.252;2024-01-15T06:58:35;78.22;;;58.38;;
38785;SDS011;24535;45.508;12.252;2024-01-15T07:01:00;71.45;;;56.35;;
38785;SDS011;24535;45.508;12.252;2024-01-15T07:03:27;76.35;;;56.92;;
38785;SDS011;24535;45.508;12.252;2024-01-15T07:05:52;78.53;;;59.97;;
38785;SDS011;24535;45.508;12.252;2024-01-15T07:08:17;73.75;;;56.78;;
38785;SDS011;24535;45.508;12.252;2024-01-15T07:10:43;78.40;;;58.90;;
38785;SDS011;24535;45.508;12.252;2024-01-15T07:13:08;73.32;;;58.17;;
38785;SDS011;24535;45.508;12.252;2024-01-15T07:15:34;73.32;;;58.15;;
38785;SDS011;24535;45.508;12.252;2024-01-15T07:17:59;75.63;;;61.80;;
38785;SDS011;24535;45.508;12.252;2024-01-15T07:20:25;75.45;;;58.25;;
38785;SDS011;24535;45.508;12.252;2024-01-15T07:22:50;73.15;;;57.72;;
38785;SDS011;24535;45.508;12.252;2024-01-15T07:25:16;77.85;;;57.03;;
38785;SDS011;24535;45.508;12.252;2024-01-15T07:27:42;73.57;;;56.30;;
38785;SDS011;24535;45.508;12.252;2024-01-15T07:30:10;74.60;;;55.40;;
38785;SDS011;24535;45.508;12.252;2024-01-15T07:32:38;71.32;;;57.38;;
38785;SDS011;24535;45.508;12.252;2024-01-15T07:35:05;70.95;;;54.25;;
38785;SDS011;24535;45.508;12.252;2024-01-15T07:37:31;68.30;;;53.25;;
38785;SDS011;24535;45.508;12.252;2024-01-15T07:39:56;70.20;;;54.05;;
38785;SDS011;24535;45.508;12.252;2024-01-15T07:42:22;69.30;;;54.17;;
38785;SDS011;24535;45.508;12.252;2024-01-15T07:44:47;71.78;;;54.03;;
38785;SDS011;24535;45.508;12.252;2024-01-15T07:47:13;66.80;;;54.38;;
38785;SDS011;24535;45.508;12.252;2024-01-15T07:49:38;72.60;;;53.85;;
38785;SDS011;24535;45.508;12.252;2024-01-15T07:52:10;68.22;;;52.30;;
38785;SDS011;24535;45.508;12.252;2024-01-15T07:54:37;69.50;;;54.22;;
38785;SDS011;24535;45.508;12.252;2024-01-15T07:57:03;69.65;;;54.35;;
38785;SDS011;24535;45.508;12.252;2024-01-15T07:59:29;67.65;;;53.22;;
38785;SDS011;24535;45.508;12.252;2024-01-15T08:01:54;67.90;;;52.88;;
38785;SDS011;24535;45.508;12.252;2024-01-15T08:04:20;65.38;;;51.63;;
38785;SDS011;24535;45.508;12.252;2024-01-15T08:06:47;65.10;;;52.40;;
38785;SDS011;24535;45.508;12.252;2024-01-15T08:09:12;69.32;;;51.88;;
38785;SDS011;24535;45.508;12.252;2024-01-15T08:11:41;68.40;;;51.85;;
38785;SDS011;24535;45.508;12.252;2024-01-15T08:14:08;71.72;;;52.25;;
38785;SDS011;24535;45.508;12.252;2024-01-15T08:16:36;69.10;;;52.67;;
38785;SDS011;24535;45.508;12.252;2024-01-15T08:19:09;69.93;;;53.00;;
38785;SDS011;24535;45.508;12.252;2024-01-15T08:21:34;65.28;;;51.03;;
38785;SDS011;24535;45.508;12.252;2024-01-15T08:24:00;67.22;;;51.58;;
38785;SDS011;24535;45.508;12.252;2024-01-15T08:29:21;66.90;;;52.50;;
38785;SDS011;24535;45.508;12.252;2024-01-15T08:31:49;69.60;;;51.67;;
38785;SDS011;24535;45.508;12.252;2024-01-15T08:34:15;67.60;;;52.22;;
38785;SDS011;24535;45.508;12.252;2024-01-15T08:36:47;70.28;;;50.10;;
38785;SDS011;24535;45.508;12.252;2024-01-15T09:43:39;55.13;;;43.28;;
38785;SDS011;24535;45.508;12.252;2024-01-15T09:46:08;52.85;;;42.15;;
38785;SDS011;24535;45.508;12.252;2024-01-15T09:48:34;56.00;;;42.42;;
38785;SDS011;24535;45.508;12.252;2024-01-15T09:51:09;56.10;;;43.22;;
38785;SDS011;24535;45.508;12.252;2024-01-15T09:53:41;58.67;;;44.53;;
38785;SDS011;24535;45.508;12.252;2024-01-15T09:56:08;54.65;;;43.35;;
38785;SDS011;24535;45.508;12.252;2024-01-15T09:58:38;51.38;;;42.10;;
38785;SDS011;24535;45.508;12.252;2024-01-15T10:01:04;55.67;;;42.88;;
38785;SDS011;24535;45.508;12.252;2024-01-15T10:03:30;56.35;;;43.67;;
38785;SDS011;24535;45.508;12.252;2024-01-15T10:05:56;57.13;;;42.45;;
38785;SDS011;24535;45.508;12.252;2024-01-15T10:08:29;56.45;;;43.28;;
38785;SDS011;24535;45.508;12.252;2024-01-15T10:10:55;55.58;;;42.55;;
38785;SDS011;24535;45.508;12.252;2024-01-15T10:13:23;52.45;;;40.38;;
38785;SDS011;24535;45.508;12.252;2024-01-15T10:15:48;57.58;;;43.72;;
38785;SDS011;24535;45.508;12.252;2024-01-15T10:18:14;57.17;;;41.85;;
38785;SDS011;24535;45.508;12.252;2024-01-15T10:20:40;52.42;;;40.78;;
38785;SDS011;24535;45.508;12.252;2024-01-15T10:23:05;56.58;;;41.47;;
38785;SDS011;24535;45.508;12.252;2024-01-15T10:25:31;58.72;;;44.35;;
38785;SDS011;24535;45.508;12.252;2024-01-15T10:28:00;55.60;;;41.50;;
38785;SDS011;24535;45.508;12.252;2024-01-15T10:30:26;54.25;;;42.45;;
38785;SDS011;24535;45.508;12.252;2024-01-15T10:32:59;52.95;;;42.05;;
38785;SDS011;24535;45.508;12.252;2024-01-15T10:35:26;52.70;;;42.90;;
38785;SDS011;24535;45.508;12.252;2024-01-15T10:40:21;53.92;;;40.60;;
38785;SDS011;24535;45.508;12.252;2024-01-15T10:42:46;55.88;;;43.38;;
38785;SDS011;24535;45.508;12.252;2024-01-15T10:45:12;58.60;;;46.20;;
38785;SDS011;24535;45.508;12.252;2024-01-15T10:47:39;55.53;;;43.30;;
38785;SDS011;24535;45.508;12.252;2024-01-15T10:50:05;53.58;;;41.72;;
38785;SDS011;24535;45.508;12.252;2024-01-15T10:52:33;56.72;;;41.40;;
38785;SDS011;24535;45.508;12.252;2024-01-15T10:55:00;57.60;;;42.72;;
38785;SDS011;24535;45.508;12.252;2024-01-15T10:57:27;58.33;;;43.13;;
38785;SDS011;24535;45.508;12.252;2024-01-15T10:59:54;56.53;;;44.00;;
38785;SDS011;24535;45.508;12.252;2024-01-15T11:02:19;56.90;;;44.50;;
38785;SDS011;24535;45.508;12.252;2024-01-15T11:04:45;57.35;;;43.58;;
38785;SDS011;24535;45.508;12.252;2024-01-15T11:07:11;60.53;;;44.10;;
38785;SDS011;24535;45.508;12.252;2024-01-15T11:09:38;57.75;;;44.47;;
38785;SDS011;24535;45.508;12.252;2024-01-15T11:12:07;58.47;;;42.92;;
38785;SDS011;24535;45.508;12.252;2024-01-15T11:19:51;56.75;;;42.67;;
38785;SDS011;24535;45.508;12.252;2024-01-15T11:24:54;51.75;;;43.10;;
38785;SDS011;24535;45.508;12.252;2024-01-15T11:27:38;58.63;;;46.38;;
38785;SDS011;24535;45.508;12.252;2024-01-15T11:30:18;57.78;;;42.60;;
38785;SDS011;24535;45.508;12.252;2024-01-15T11:32:45;60.28;;;45.03;;
38785;SDS011;24535;45.508;12.252;2024-01-15T11:35:12;59.10;;;45.42;;
38785;SDS011;24535;45.508;12.252;2024-01-15T11:42:46;61.75;;;45.28;;
38785;SDS011;24535;45.508;12.252;2024-01-15T11:45:19;62.90;;;46.08;;
38785;SDS011;24535;45.508;12.252;2024-01-15T11:48:09;54.83;;;44.05;;
38785;SDS011;24535;45.508;12.252;2024-01-15T11:50:45;60.85;;;46.22;;
38785;SDS011;24535;45.508;12.252;2024-01-15T11:55:52;61.00;;;46.28;;
38785;SDS011;24535;45.508;12.252;2024-01-15T11:58:23;58.05;;;45.55;;
38785;SDS011;24535;45.508;12.252;2024-01-15T12:00:50;58.58;;;44.10;;
38785;SDS011;24535;45.508;12.252;2024-01-15T12:03:17;61.80;;;46.63;;
38785;SDS011;24535;45.508;12.252;2024-01-15T12:05:45;62.72;;;46.78;;
38785;SDS011;24535;45.508;12.252;2024-01-15T12:08:11;64.85;;;46.92;;
38785;SDS011;24535;45.508;12.252;2024-01-15T12:10:37;66.13;;;46.72;;
38785;SDS011;24535;45.508;12.252;2024-01-15T12:15:37;58.67;;;45.95;;
38785;SDS011;24535;45.508;12.252;2024-01-15T12:18:06;59.17;;;45.58;;
38785;SDS011;24535;45.508;12.252;2024-01-15T12:20:36;62.83;;;46.88;;
38785;SDS011;24535;45.508;12.252;2024-01-15T12:23:05;65.47;;;46.63;;
38785;SDS011;24535;45.508;12.252;2024-01-15T12:25:49;59.40;;;44.28;;
38785;SDS011;24535;45.508;12.252;2024-01-15T12:28:27;58.58;;;44.60;;
38785;SDS011;24535;45.508;12.252;2024-01-15T12:31:25;63.80;;;45.53;;
38785;SDS011;24535;45.508;12.252;2024-01-15T12:33:53;61.10;;;45.05;;
38785;SDS011;24535;45.508;12.252;2024-01-15T12:36:30;59.57;;;44.27;;
38785;SDS011;24535;45.508;12.252;2024-01-15T12:39:11;62.07;;;44.07;;
38785;SDS011;24535;45.508;12.252;2024-01-15T12:41:55;59.90;;;44.47;;
38785;SDS011;24535;45.508;12.252;2024-01-15T12:44:33;64.65;;;46.33;;
38785;SDS011;24535;45.508;12.252;2024-01-15T12:46:59;63.92;;;46.97;;
38785;SDS011;24535;45.508;12.252;2024-01-15T12:52:29;64.30;;;50.10;;
38785;SDS011;24535;45.508;12.252;2024-01-15T12:55:05;70.47;;;51.13;;
38785;SDS011;24535;45.508;12.252;2024-01-15T13:05:22;59.45;;;44.88;;
38785;SDS011;24535;45.508;12.252;2024-01-15T13:07:47;64.97;;;48.08;;
38785;SDS011;24535;45.508;12.252;2024-01-15T13:10:16;72.27;;;51.90;;
38785;SDS011;24535;45.508;12.252;2024-01-15T13:12:48;76.63;;;52.95;;
38785;SDS011;24535;45.508;12.252;2024-01-15T13:17:50;66.93;;;50.75;;
38785;SDS011;24535;45.508;12.252;2024-01-15T13:20:22;66.20;;;49.03;;
38785;SDS011;24535;45.508;12.252;2024-01-15T13:29:03;64.30;;;46.97;;
38785;SDS011;24535;45.508;12.252;2024-01-15T13:31:56;62.58;;;46.88;;
38785;SDS011;24535;45.508;12.252;2024-01-15T13:37:30;63.72;;;48.58;;
38785;SDS011;24535;45.508;12.252;2024-01-15T13:39:56;67.47;;;47.22;;
38785;SDS011;24535;45.508;12.252;2024-01-15T13:42:21;65.82;;;49.22;;
38785;SDS011;24535;45.508;12.252;2024-01-15T13:44:53;62.58;;;46.88;;
38785;SDS011;24535;45.508;12.252;2024-01-15T13:47:19;62.22;;;46.80;;
38785;SDS011;24535;45.508;12.252;2024-01-15T13:50:18;65.68;;;48.33;;
38785;SDS011;24535;45.508;12.252;2024-01-15T13:52:44;65.70;;;50.25;;
38785;SDS011;24535;45.508;12.252;2024-01-15T13:55:10;69.53;;;49.33;;
38785;SDS011;24535;45.508;12.252;2024-01-15T13:57:38;64.95;;;48.45;;
38785;SDS011;24535;45.508;12.252;2024-01-15T14:00:04;68.53;;;50.00;;
38785;SDS011;24535;45.508;12.252;2024-01-15T14:11:21;67.38;;;50.58;;
38785;SDS011;24535;45.508;12.252;2024-01-15T14:17:25;71.20;;;50.30;;
38785;SDS011;24535;45.508;12.252;2024-01-15T14:19:54;65.63;;;51.28;;
38785;SDS011;24535;45.508;12.252;2024-01-15T14:22:19;67.32;;;53.47;;
38785;SDS011;24535;45.508;12.252;2024-01-15T14:24:45;70.30;;;52.20;;
38785;SDS011;24535;45.508;12.252;2024-01-15T14:27:11;67.80;;;52.05;;
38785;SDS011;24535;45.508;12.252;2024-01-15T14:29:36;72.93;;;52.55;;
38785;SDS011;24535;45.508;12.252;2024-01-15T14:32:20;70.70;;;53.58;;
38785;SDS011;24535;45.508;12.252;2024-01-15T14:37:29;65.30;;;51.17;;
38785;SDS011;24535;45.508;12.252;2024-01-15T14:39:57;70.13;;;53.28;;
38785;SDS011;24535;45.508;12.252;2024-01-15T14:42:28;69.53;;;51.50;;
38785;SDS011;24535;45.508;12.252;2024-01-15T14:45:16;69.57;;;51.88;;
38785;SDS011;24535;45.508;12.252;2024-01-15T14:47:48;69.50;;;53.42;;
38785;SDS011;24535;45.508;12.252;2024-01-15T14:50:13;70.10;;;51.83;;
38785;SDS011;24535;45.508;12.252;2024-01-15T14:52:39;65.13;;;51.45;;
38785;SDS011;24535;45.508;12.252;2024-01-15T14:55:07;69.45;;;52.67;;
38785;SDS011;24535;45.508;12.252;2024-01-15T15:00:38;63.28;;;48.22;;
38785;SDS011;24535;45.508;12.252;2024-01-15T15:08:56;68.78;;;50.13;;
38785;SDS011;24535;45.508;12.252;2024-01-15T15:11:48;66.72;;;50.58;;
38785;SDS011;24535;45.508;12.252;2024-01-15T15:14:14;68.03;;;51.53;;
38785;SDS011;24535;45.508;12.252;2024-01-15T15:16:39;69.80;;;52.88;;
38785;SDS011;24535;45.508;12.252;2024-01-15T15:19:27;71.63;;;51.88;;
38785;SDS011;24535;45.508;12.252;2024-01-15T15:22:08;68.90;;;52.08;;
38785;SDS011;24535;45.508;12.252;2024-01-15T15:27:10;70.88;;;53.10;;
38785;SDS011;24535;45.508;12.252;2024-01-15T15:35:20;69.20;;;52.90;;
38785;SDS011;24535;45.508;12.252;2024-01-15T15:38:06;69.50;;;51.25;;
38785;SDS011;24535;45.508;12.252;2024-01-15T15:40:41;70.97;;;54.55;;
38785;SDS011;24535;45.508;12.252;2024-01-15T15:43:07;75.15;;;53.72;;
38785;SDS011;24535;45.508;12.252;2024-01-15T15:45:41;75.15;;;55.08;;
38785;SDS011;24535;45.508;12.252;2024-01-15T15:51:10;66.60;;;52.20;;
38785;SDS011;24535;45.508;12.252;2024-01-15T15:53:36;72.07;;;52.80;;
38785;SDS011;24535;45.508;12.252;2024-01-15T15:56:23;74.57;;;55.58;;
38785;SDS011;24535;45.508;12.252;2024-01-15T15:58:50;75.90;;;54.72;;
38785;SDS011;24535;45.508;12.252;2024-01-15T16:01:16;73.93;;;54.47;;
38785;SDS011;24535;45.508;12.252;2024-01-15T16:03:44;74.20;;;55.05;;
38785;SDS011;24535;45.508;12.252;2024-01-15T16:06:25;70.38;;;54.20;;
38785;SDS011;24535;45.508;12.252;2024-01-15T16:08:51;76.18;;;56.55;;
38785;SDS011;24535;45.508;12.252;2024-01-15T16:11:19;72.20;;;56.00;;
38785;SDS011;24535;45.508;12.252;2024-01-15T16:13:45;76.45;;;56.70;;
38785;SDS011;24535;45.508;12.252;2024-01-15T16:16:11;74.05;;;55.88;;
38785;SDS011;24535;45.508;12.252;2024-01-15T16:18:52;73.60;;;56.78;;
38785;SDS011;24535;45.508;12.252;2024-01-15T16:21:26;79.53;;;58.03;;
38785;SDS011;24535;45.508;12.252;2024-01-15T16:23:52;75.32;;;56.72;;
38785;SDS011;24535;45.508;12.252;2024-01-15T16:26:18;78.35;;;56.80;;
38785;SDS011;24535;45.508;12.252;2024-01-15T16:28:47;77.43;;;57.35;;
38785;SDS011;24535;45.508;12.252;2024-01-15T16:31:21;74.80;;;56.13;;
38785;SDS011;24535;45.508;12.252;2024-01-15T16:33:47;76.10;;;55.70;;
38785;SDS011;24535;45.508;12.252;2024-01-15T16:36:12;71.47;;;54.92;;
38785;SDS011;24535;45.508;12.252;2024-01-15T16:38:41;76.40;;;58.92;;
38785;SDS011;24535;45.508;12.252;2024-01-15T16:41:06;81.70;;;59.10;;
38785;SDS011;24535;45.508;12.252;2024-01-15T16:43:32;80.00;;;58.28;;
38785;SDS011;24535;45.508;12.252;2024-01-15T16:45:57;75.57;;;58.47;;
38785;SDS011;24535;45.508;12.252;2024-01-15T16:48:23;77.30;;;56.97;;
38785;SDS011;24535;45.508;12.252;2024-01-15T16:50:51;70.75;;;55.17;;
38785;SDS011;24535;45.508;12.252;2024-01-15T16:53:19;77.05;;;59.05;;
38785;SDS011;24535;45.508;12.252;2024-01-15T16:55:44;79.93;;;59.42;;
38785;SDS011;24535;45.508;12.252;2024-01-15T16:58:10;74.88;;;56.72;;
38785;SDS011;24535;45.508;12.252;2024-01-15T17:00:45;78.90;;;59.63;;
38785;SDS011;24535;45.508;12.252;2024-01-15T17:03:11;79.03;;;57.75;;
38785;SDS011;24535;45.508;12.252;2024-01-15T17:05:53;80.28;;;61.80;;
38785;SDS011;24535;45.508;12.252;2024-01-15T17:08:18;84.72;;;59.88;;
38785;SDS011;24535;45.508;12.252;2024-01-15T17:10:44;74.40;;;55.55;;
38785;SDS011;24535;45.508;12.252;2024-01-15T17:13:09;75.38;;;57.20;;
38785;SDS011;24535;45.508;12.252;2024-01-15T17:15:35;85.05;;;60.45;;
38785;SDS011;24535;45.508;12.252;2024-01-15T17:18:08;84.50;;;61.72;;
38785;SDS011;24535;45.508;12.252;2024-01-15T17:20:33;84.90;;;61.83;;
38785;SDS011;24535;45.508;12.252;2024-01-15T17:22:59;76.15;;;59.90;;
38785;SDS011;24535;45.508;12.252;2024-01-15T17:25:24;79.75;;;61.22;;